Hauptseite
METAR-TAF:

METAR-TAF

Flughäfen :

Flughafen Andahuaylas

Andahuaylas, Peru

Breite: 13-43S, Länge: 073-21W, Höhe: 3444 m

Beobachtung

Neuester Wetterbericht von vor 53 Minuten, um 19:00 UTC
Wind 10 kt aus Nordost
Temperatur 17°C
Luftfeuchtigkeit 42%
Luftdruck 1035 hPa
Sichtweite 10 km oder mehr
Leicht bewölkt in der Höhe von 1200 ft

METAR: SPHY 251900Z 05010KT 9999 FEW012 17/04 Q1035 RMK BIRD HAZARD RWY03/21 PP000

Zeit: 14:53 (19:53 UTC)

Prognose

Neuester Wetterbericht von vor 2 Stunden und 53 Minuten, um 17:00 UTC
Gültige Prognose vom 25 um 18 UTC bis 26 um 18 UTC
Wind 10 kt aus Nord/Nordwest
Sichtweite 10 km oder mehr
keine Wolken unter 1500 m und keine Kumulonimbus oder Gewitterwolken
Übergehend zu
vom 25 um 19 UTC bis 25 um 21 UTC
Wind kt aus Nord

TAF: SPHY 251700Z 2518/2618 34010KT CAVOK TX17/2519Z TNM01/2611Z BECMG 2519/2521 00000KT

Wetterbeobachtungen und Prognosen von mehr als 4000 Flughäfen (METAR und TAF Bericht).

Die verfügbaren Stationen werden durch gelbe und rote Markierungen auf der Karte dargestellt.

Führen Sie die Maus auf sie, um den Namen der Station zu sehen.

Darauf klicken, um die Beobachtung von Wetterbeobachtungen und Prognosen zu sehen.

Um die Karte zu ändern : klicken Sie auf den grünen Tasten mit einem schwarzen Kreuz Zum Vergrößern, auf den grünen Button mit einem Gedankenstrich zu verkleinern, oder auf die grünen Pfeile für benachbarte Karten.


METAR-TAF: